sensor_id;sensor_type;location;lat;lon;timestamp;pressure;altitude;pressure_sealevel;temperature;humidity
50226;BME280;36113;50.742;6.432;2023-05-02T00:01:32;112741.81;;;-145.50;100.00
50226;BME280;36113;50.742;6.432;2023-05-02T00:03:57;112741.81;;;-145.50;100.00
50226;BME280;36113;50.742;6.432;2023-05-02T00:06:22;112741.81;;;-145.50;100.00
50226;BME280;36113;50.742;6.432;2023-05-02T00:08:48;112741.81;;;-145.50;100.00
50226;BME280;36113;50.742;6.432;2023-05-02T00:11:14;112741.81;;;-145.50;100.00
50226;BME280;36113;50.742;6.432;2023-05-02T00:13:39;112741.81;;;-145.50;100.00
50226;BME280;36113;50.742;6.432;2023-05-02T00:16:05;112741.81;;;-145.50;100.00
50226;BME280;36113;50.742;6.432;2023-05-02T00:18:31;112741.81;;;-145.50;100.00
50226;BME280;36113;50.742;6.432;2023-05-02T00:20:56;112741.81;;;-145.50;100.00
50226;BME280;36113;50.742;6.432;2023-05-02T00:23:21;112741.81;;;-145.50;100.00
50226;BME280;36113;50.742;6.432;2023-05-02T00:25:46;112741.81;;;-145.50;100.00
50226;BME280;36113;50.742;6.432;2023-05-02T00:28:12;112741.81;;;-145.50;100.00
50226;BME280;36113;50.742;6.432;2023-05-02T00:30:44;112741.81;;;-145.50;100.00
50226;BME280;36113;50.742;6.432;2023-05-02T00:33:10;112741.81;;;-145.50;100.00
50226;BME280;36113;50.742;6.432;2023-05-02T00:35:36;112741.81;;;-145.50;100.00
50226;BME280;36113;50.742;6.432;2023-05-02T00:38:01;112741.81;;;-145.50;100.00
50226;BME280;36113;50.742;6.432;2023-05-02T00:40:27;112741.81;;;-145.50;100.00
50226;BME280;36113;50.742;6.432;2023-05-02T00:42:52;112741.81;;;-145.50;100.00
50226;BME280;36113;50.742;6.432;2023-05-02T00:45:17;112741.81;;;-145.50;100.00
50226;BME280;36113;50.742;6.432;2023-05-02T00:47:43;112741.81;;;-145.50;100.00
50226;BME280;36113;50.742;6.432;2023-05-02T00:50:08;112741.81;;;-145.50;100.00
50226;BME280;36113;50.742;6.432;2023-05-02T00:52:34;112741.81;;;-145.50;100.00
50226;BME280;36113;50.742;6.432;2023-05-02T00:55:00;112741.81;;;-145.50;100.00
50226;BME280;36113;50.742;6.432;2023-05-02T00:57:25;112741.81;;;-145.50;100.00
50226;BME280;36113;50.742;6.432;2023-05-02T00:59:51;112741.81;;;-145.50;100.00
50226;BME280;36113;50.742;6.432;2023-05-02T01:02:29;112741.81;;;-145.50;100.00
50226;BME280;36113;50.742;6.432;2023-05-02T01:05:01;112741.81;;;-145.50;100.00
50226;BME280;36113;50.742;6.432;2023-05-02T01:13:02;112741.81;;;-145.50;100.00
50226;BME280;36113;50.742;6.432;2023-05-02T01:15:29;112741.81;;;-145.50;100.00
50226;BME280;36113;50.742;6.432;2023-05-02T01:17:59;112741.81;;;-145.50;100.00
50226;BME280;36113;50.742;6.432;2023-05-02T01:20:27;112741.81;;;-145.50;100.00
50226;BME280;36113;50.742;6.432;2023-05-02T01:22:55;112741.81;;;-145.50;100.00
50226;BME280;36113;50.742;6.432;2023-05-02T01:25:32;112741.81;;;-145.50;100.00
50226;BME280;36113;50.742;6.432;2023-05-02T01:30:40;112741.81;;;-145.50;100.00
50226;BME280;36113;50.742;6.432;2023-05-02T01:33:10;112741.81;;;-145.50;100.00
50226;BME280;36113;50.742;6.432;2023-05-02T01:35:36;112741.81;;;-145.50;100.00
50226;BME280;36113;50.742;6.432;2023-05-02T01:38:04;112741.81;;;-145.50;100.00
50226;BME280;36113;50.742;6.432;2023-05-02T01:40:31;112741.81;;;-145.50;100.00
50226;BME280;36113;50.742;6.432;2023-05-02T01:42:58;112741.81;;;-145.50;100.00
50226;BME280;36113;50.742;6.432;2023-05-02T01:45:24;112741.81;;;-145.50;100.00
50226;BME280;36113;50.742;6.432;2023-05-02T01:47:51;112741.81;;;-145.50;100.00
50226;BME280;36113;50.742;6.432;2023-05-02T01:50:21;112741.81;;;-145.50;100.00
50226;BME280;36113;50.742;6.432;2023-05-02T01:52:50;112741.81;;;-145.50;100.00
50226;BME280;36113;50.742;6.432;2023-05-02T01:55:16;112741.81;;;-145.50;100.00
50226;BME280;36113;50.742;6.432;2023-05-02T01:57:43;112741.81;;;-145.50;100.00
50226;BME280;36113;50.742;6.432;2023-05-02T02:00:10;112741.81;;;-145.50;100.00
50226;BME280;36113;50.742;6.432;2023-05-02T02:02:36;112741.81;;;-145.50;100.00
50226;BME280;36113;50.742;6.432;2023-05-02T02:05:05;112741.81;;;-145.50;100.00
50226;BME280;36113;50.742;6.432;2023-05-02T02:07:31;112741.81;;;-145.50;100.00
50226;BME280;36113;50.742;6.432;2023-05-02T02:09:57;112741.81;;;-145.50;100.00
50226;BME280;36113;50.742;6.432;2023-05-02T02:12:44;112741.81;;;-145.50;100.00
50226;BME280;36113;50.742;6.432;2023-05-02T02:17:54;112741.81;;;-145.50;100.00
50226;BME280;36113;50.742;6.432;2023-05-02T02:20:21;112741.81;;;-145.50;100.00
50226;BME280;36113;50.742;6.432;2023-05-02T02:22:47;112741.81;;;-145.50;100.00
50226;BME280;36113;50.742;6.432;2023-05-02T02:25:15;112741.81;;;-145.50;100.00
50226;BME280;36113;50.742;6.432;2023-05-02T02:27:42;112741.81;;;-145.50;100.00
50226;BME280;36113;50.742;6.432;2023-05-02T02:30:08;112741.81;;;-145.50;100.00
50226;BME280;36113;50.742;6.432;2023-05-02T02:32:34;112741.81;;;-145.50;100.00
50226;BME280;36113;50.742;6.432;2023-05-02T02:35:00;112741.81;;;-145.50;100.00
50226;BME280;36113;50.742;6.432;2023-05-02T02:37:31;112741.81;;;-145.50;100.00
50226;BME280;36113;50.742;6.432;2023-05-02T02:43:08;112741.81;;;-145.50;100.00
50226;BME280;36113;50.742;6.432;2023-05-02T02:45:56;112741.81;;;-145.50;100.00
50226;BME280;36113;50.742;6.432;2023-05-02T02:48:36;112741.81;;;-145.50;100.00
50226;BME280;36113;50.742;6.432;2023-05-02T02:53:46;112741.81;;;-145.50;100.00
50226;BME280;36113;50.742;6.432;2023-05-02T02:56:26;112741.81;;;-145.50;100.00
50226;BME280;36113;50.742;6.432;2023-05-02T03:01:39;112741.81;;;-145.50;100.00
50226;BME280;36113;50.742;6.432;2023-05-02T03:04:07;112741.81;;;-145.50;100.00
50226;BME280;36113;50.742;6.432;2023-05-02T03:06:33;112741.81;;;-145.50;100.00
50226;BME280;36113;50.742;6.432;2023-05-02T03:08:59;112741.81;;;-145.50;100.00
50226;BME280;36113;50.742;6.432;2023-05-02T03:11:25;112741.81;;;-145.50;100.00
50226;BME280;36113;50.742;6.432;2023-05-02T03:13:51;112741.81;;;-145.50;100.00
50226;BME280;36113;50.742;6.432;2023-05-02T03:16:39;112741.81;;;-145.50;100.00
50226;BME280;36113;50.742;6.432;2023-05-02T03:19:06;112741.81;;;-145.50;100.00
50226;BME280;36113;50.742;6.432;2023-05-02T03:21:31;112741.81;;;-145.50;100.00
50226;BME280;36113;50.742;6.432;2023-05-02T03:24:01;112741.81;;;-145.50;100.00
50226;BME280;36113;50.742;6.432;2023-05-02T03:26:27;112741.81;;;-145.50;100.00
50226;BME280;36113;50.742;6.432;2023-05-02T03:28:53;112741.81;;;-145.50;100.00
50226;BME280;36113;50.742;6.432;2023-05-02T03:31:19;112741.81;;;-145.50;100.00
50226;BME280;36113;50.742;6.432;2023-05-02T03:33:44;112741.81;;;-145.50;100.00
50226;BME280;36113;50.742;6.432;2023-05-02T03:36:10;112741.81;;;-145.50;100.00
50226;BME280;36113;50.742;6.432;2023-05-02T03:38:35;112741.81;;;-145.50;100.00
50226;BME280;36113;50.742;6.432;2023-05-02T03:41:01;112741.81;;;-145.50;100.00
50226;BME280;36113;50.742;6.432;2023-05-02T03:43:27;112741.81;;;-145.50;100.00
50226;BME280;36113;50.742;6.432;2023-05-02T03:45:52;112741.81;;;-145.50;100.00
50226;BME280;36113;50.742;6.432;2023-05-02T03:48:18;112741.81;;;-145.50;100.00
50226;BME280;36113;50.742;6.432;2023-05-02T03:50:44;112741.81;;;-145.50;100.00
50226;BME280;36113;50.742;6.432;2023-05-02T03:53:09;112741.81;;;-145.50;100.00
50226;BME280;36113;50.742;6.432;2023-05-02T03:55:43;112741.81;;;-145.50;100.00
50226;BME280;36113;50.742;6.432;2023-05-02T03:58:10;112741.81;;;-145.50;100.00
50226;BME280;36113;50.742;6.432;2023-05-02T04:00:35;112741.81;;;-145.50;100.00
50226;BME280;36113;50.742;6.432;2023-05-02T04:03:02;112741.81;;;-145.50;100.00
50226;BME280;36113;50.742;6.432;2023-05-02T04:05:27;112741.81;;;-145.50;100.00
50226;BME280;36113;50.742;6.432;2023-05-02T04:07:53;112741.81;;;-145.50;100.00
50226;BME280;36113;50.742;6.432;2023-05-02T04:10:18;112741.81;;;-145.50;100.00
50226;BME280;36113;50.742;6.432;2023-05-02T04:12:44;112741.81;;;-145.50;100.00
50226;BME280;36113;50.742;6.432;2023-05-02T04:15:09;112741.81;;;-145.50;100.00
50226;BME280;36113;50.742;6.432;2023-05-02T04:17:35;112741.81;;;-145.50;100.00
50226;BME280;36113;50.742;6.432;2023-05-02T04:20:01;112741.81;;;-145.50;100.00
50226;BME280;36113;50.742;6.432;2023-05-02T04:22:26;112741.81;;;-145.50;100.00
50226;BME280;36113;50.742;6.432;2023-05-02T04:24:52;112741.81;;;-145.50;100.00
50226;BME280;36113;50.742;6.432;2023-05-02T04:27:18;112741.81;;;-145.50;100.00
50226;BME280;36113;50.742;6.432;2023-05-02T04:29:43;112741.81;;;-145.50;100.00
50226;BME280;36113;50.742;6.432;2023-05-02T04:32:08;112741.81;;;-145.50;100.00
50226;BME280;36113;50.742;6.432;2023-05-02T04:34:34;112741.81;;;-145.50;100.00
50226;BME280;36113;50.742;6.432;2023-05-02T04:37:00;112741.81;;;-145.50;100.00
50226;BME280;36113;50.742;6.432;2023-05-02T04:39:25;112741.81;;;-145.50;100.00
50226;BME280;36113;50.742;6.432;2023-05-02T04:41:51;112741.81;;;-145.50;100.00
50226;BME280;36113;50.742;6.432;2023-05-02T04:44:16;112741.81;;;-145.50;100.00
50226;BME280;36113;50.742;6.432;2023-05-02T04:46:42;112741.81;;;-145.50;100.00
50226;BME280;36113;50.742;6.432;2023-05-02T04:49:07;112741.81;;;-145.50;100.00
50226;BME280;36113;50.742;6.432;2023-05-02T04:51:34;112741.81;;;-145.50;100.00
50226;BME280;36113;50.742;6.432;2023-05-02T04:53:59;112741.81;;;-145.50;100.00
50226;BME280;36113;50.742;6.432;2023-05-02T04:56:24;112741.81;;;-145.50;100.00
50226;BME280;36113;50.742;6.432;2023-05-02T04:58:50;112741.81;;;-145.50;100.00
50226;BME280;36113;50.742;6.432;2023-05-02T05:01:15;112741.81;;;-145.50;100.00
50226;BME280;36113;50.742;6.432;2023-05-02T05:03:40;112741.81;;;-145.50;100.00
50226;BME280;36113;50.742;6.432;2023-05-02T05:06:06;112741.81;;;-145.50;100.00
50226;BME280;36113;50.742;6.432;2023-05-02T05:08:31;112741.81;;;-145.50;100.00
50226;BME280;36113;50.742;6.432;2023-05-02T05:10:56;112741.81;;;-145.50;100.00
50226;BME280;36113;50.742;6.432;2023-05-02T05:13:22;112741.81;;;-145.50;100.00
50226;BME280;36113;50.742;6.432;2023-05-02T05:15:47;112741.81;;;-145.50;100.00
50226;BME280;36113;50.742;6.432;2023-05-02T05:18:12;112741.81;;;-145.50;100.00
50226;BME280;36113;50.742;6.432;2023-05-02T05:20:38;112741.81;;;-145.50;100.00
50226;BME280;36113;50.742;6.432;2023-05-02T05:23:03;112741.81;;;-145.50;100.00
50226;BME280;36113;50.742;6.432;2023-05-02T05:25:28;112741.81;;;-145.50;100.00
50226;BME280;36113;50.742;6.432;2023-05-02T05:27:53;112741.81;;;-145.50;100.00
50226;BME280;36113;50.742;6.432;2023-05-02T05:30:20;112741.81;;;-145.50;100.00
50226;BME280;36113;50.742;6.432;2023-05-02T05:32:46;112741.81;;;-145.50;100.00
50226;BME280;36113;50.742;6.432;2023-05-02T05:35:11;112741.81;;;-145.50;100.00
50226;BME280;36113;50.742;6.432;2023-05-02T05:37:37;112741.81;;;-145.50;100.00
50226;BME280;36113;50.742;6.432;2023-05-02T05:40:05;112741.81;;;-145.50;100.00
50226;BME280;36113;50.742;6.432;2023-05-02T05:42:31;112741.81;;;-145.50;100.00
50226;BME280;36113;50.742;6.432;2023-05-02T05:44:56;112741.81;;;-145.50;100.00
50226;BME280;36113;50.742;6.432;2023-05-02T05:47:22;112741.81;;;-145.50;100.00
50226;BME280;36113;50.742;6.432;2023-05-02T05:49:47;112741.81;;;-145.50;100.00
50226;BME280;36113;50.742;6.432;2023-05-02T05:52:16;112741.81;;;-145.50;100.00
50226;BME280;36113;50.742;6.432;2023-05-02T05:54:41;112741.81;;;-145.50;100.00
50226;BME280;36113;50.742;6.432;2023-05-02T05:57:06;112741.81;;;-145.50;100.00
50226;BME280;36113;50.742;6.432;2023-05-02T05:59:34;112741.81;;;-145.50;100.00
50226;BME280;36113;50.742;6.432;2023-05-02T06:02:00;112741.81;;;-145.50;100.00
50226;BME280;36113;50.742;6.432;2023-05-02T06:04:25;112741.81;;;-145.50;100.00
50226;BME280;36113;50.742;6.432;2023-05-02T06:06:50;112741.81;;;-145.50;100.00
50226;BME280;36113;50.742;6.432;2023-05-02T06:09:17;112741.81;;;-145.50;100.00
50226;BME280;36113;50.742;6.432;2023-05-02T06:11:43;112741.81;;;-145.50;100.00
50226;BME280;36113;50.742;6.432;2023-05-02T06:14:09;112741.81;;;-145.50;100.00
50226;BME280;36113;50.742;6.432;2023-05-02T06:16:34;112741.81;;;-145.50;100.00
50226;BME280;36113;50.742;6.432;2023-05-02T06:19:00;112741.81;;;-145.50;100.00
50226;BME280;36113;50.742;6.432;2023-05-02T06:21:25;112741.81;;;-145.50;100.00
50226;BME280;36113;50.742;6.432;2023-05-02T06:23:51;112741.81;;;-145.50;100.00
50226;BME280;36113;50.742;6.432;2023-05-02T06:26:16;112741.81;;;-145.50;100.00
50226;BME280;36113;50.742;6.432;2023-05-02T06:28:42;112741.81;;;-145.50;100.00
50226;BME280;36113;50.742;6.432;2023-05-02T06:31:08;112741.81;;;-145.50;100.00
50226;BME280;36113;50.742;6.432;2023-05-02T06:33:33;112741.81;;;-145.50;100.00
50226;BME280;36113;50.742;6.432;2023-05-02T06:35:59;112741.81;;;-145.50;100.00
50226;BME280;36113;50.742;6.432;2023-05-02T06:38:24;112741.81;;;-145.50;100.00
50226;BME280;36113;50.742;6.432;2023-05-02T06:40:50;112741.81;;;-145.50;100.00
50226;BME280;36113;50.742;6.432;2023-05-02T06:43:16;112741.81;;;-145.50;100.00
50226;BME280;36113;50.742;6.432;2023-05-02T06:45:42;112741.81;;;-145.50;100.00
50226;BME280;36113;50.742;6.432;2023-05-02T06:48:08;112741.81;;;-145.50;100.00
50226;BME280;36113;50.742;6.432;2023-05-02T06:50:34;112741.81;;;-145.50;100.00
50226;BME280;36113;50.742;6.432;2023-05-02T06:52:59;112741.81;;;-145.50;100.00
50226;BME280;36113;50.742;6.432;2023-05-02T06:55:25;112741.81;;;-145.50;100.00
50226;BME280;36113;50.742;6.432;2023-05-02T06:57:51;112741.81;;;-145.50;100.00
50226;BME280;36113;50.742;6.432;2023-05-02T07:00:17;112741.81;;;-145.50;100.00
50226;BME280;36113;50.742;6.432;2023-05-02T07:02:44;112741.81;;;-145.50;100.00
50226;BME280;36113;50.742;6.432;2023-05-02T07:05:09;112741.81;;;-145.50;100.00
50226;BME280;36113;50.742;6.432;2023-05-02T07:07:35;112741.81;;;-145.50;100.00
50226;BME280;36113;50.742;6.432;2023-05-02T07:10:02;112741.81;;;-145.50;100.00
50226;BME280;36113;50.742;6.432;2023-05-02T07:12:28;112741.81;;;-145.50;100.00
50226;BME280;36113;50.742;6.432;2023-05-02T07:14:53;112741.81;;;-145.50;100.00
50226;BME280;36113;50.742;6.432;2023-05-02T07:17:18;112741.81;;;-145.50;100.00
50226;BME280;36113;50.742;6.432;2023-05-02T07:19:44;112741.81;;;-145.50;100.00
50226;BME280;36113;50.742;6.432;2023-05-02T07:22:09;112741.81;;;-145.50;100.00
50226;BME280;36113;50.742;6.432;2023-05-02T07:24:34;112741.81;;;-145.50;100.00
50226;BME280;36113;50.742;6.432;2023-05-02T07:27:00;112741.81;;;-145.50;100.00
50226;BME280;36113;50.742;6.432;2023-05-02T07:29:27;112741.81;;;-145.50;100.00
50226;BME280;36113;50.742;6.432;2023-05-02T07:31:52;112741.81;;;-145.50;100.00
50226;BME280;36113;50.742;6.432;2023-05-02T07:34:18;112741.81;;;-145.50;100.00
50226;BME280;36113;50.742;6.432;2023-05-02T07:36:43;112741.81;;;-145.50;100.00
50226;BME280;36113;50.742;6.432;2023-05-02T07:39:08;112741.81;;;-145.50;100.00
50226;BME280;36113;50.742;6.432;2023-05-02T07:41:34;112741.81;;;-145.50;100.00
50226;BME280;36113;50.742;6.432;2023-05-02T07:43:59;112741.81;;;-145.50;100.00
50226;BME280;36113;50.742;6.432;2023-05-02T07:46:24;112741.81;;;-145.50;100.00
50226;BME280;36113;50.742;6.432;2023-05-02T07:48:50;112741.81;;;-145.50;100.00
50226;BME280;36113;50.742;6.432;2023-05-02T07:51:17;112741.81;;;-145.50;100.00
50226;BME280;36113;50.742;6.432;2023-05-02T07:53:45;112741.81;;;-145.50;100.00
50226;BME280;36113;50.742;6.432;2023-05-02T07:56:11;112741.81;;;-145.50;100.00
50226;BME280;36113;50.742;6.432;2023-05-02T07:58:36;112741.81;;;-145.50;100.00
50226;BME280;36113;50.742;6.432;2023-05-02T08:01:02;112741.81;;;-145.50;100.00
50226;BME280;36113;50.742;6.432;2023-05-02T08:03:29;112741.81;;;-145.50;100.00
50226;BME280;36113;50.742;6.432;2023-05-02T08:05:54;112741.81;;;-145.50;100.00
50226;BME280;36113;50.742;6.432;2023-05-02T08:08:19;112741.81;;;-145.50;100.00
50226;BME280;36113;50.742;6.432;2023-05-02T08:10:45;112741.81;;;-145.50;100.00
50226;BME280;36113;50.742;6.432;2023-05-02T08:13:11;112741.81;;;-145.50;100.00
50226;BME280;36113;50.742;6.432;2023-05-02T08:15:36;112741.81;;;-145.50;100.00
50226;BME280;36113;50.742;6.432;2023-05-02T08:18:01;112741.81;;;-145.50;100.00
50226;BME280;36113;50.742;6.432;2023-05-02T08:20:27;112741.81;;;-145.50;100.00
50226;BME280;36113;50.742;6.432;2023-05-02T08:22:52;112741.81;;;-145.50;100.00
50226;BME280;36113;50.742;6.432;2023-05-02T08:25:17;112741.81;;;-145.50;100.00
50226;BME280;36113;50.742;6.432;2023-05-02T08:27:43;112741.81;;;-145.50;100.00
50226;BME280;36113;50.742;6.432;2023-05-02T08:30:09;112741.81;;;-145.50;100.00
50226;BME280;36113;50.742;6.432;2023-05-02T08:32:35;112741.81;;;-145.50;100.00
50226;BME280;36113;50.742;6.432;2023-05-02T08:35:01;112741.81;;;-145.50;100.00
50226;BME280;36113;50.742;6.432;2023-05-02T08:37:27;112741.81;;;-145.50;100.00
50226;BME280;36113;50.742;6.432;2023-05-02T08:39:52;112741.81;;;-145.50;100.00
50226;BME280;36113;50.742;6.432;2023-05-02T08:42:18;112741.81;;;-145.50;100.00
50226;BME280;36113;50.742;6.432;2023-05-02T08:44:45;112741.81;;;-145.50;100.00
50226;BME280;36113;50.742;6.432;2023-05-02T08:47:12;112741.81;;;-145.50;100.00
50226;BME280;36113;50.742;6.432;2023-05-02T08:49:40;112741.81;;;-145.50;100.00
50226;BME280;36113;50.742;6.432;2023-05-02T08:52:05;112741.81;;;-145.50;100.00
50226;BME280;36113;50.742;6.432;2023-05-02T08:54:32;112741.81;;;-145.50;100.00
50226;BME280;36113;50.742;6.432;2023-05-02T08:56:58;112741.81;;;-145.50;97.96
50226;BME280;36113;50.742;6.432;2023-05-02T08:59:24;112741.81;;;-145.50;97.85
50226;BME280;36113;50.742;6.432;2023-05-02T09:01:54;112741.81;;;-145.50;96.74
50226;BME280;36113;50.742;6.432;2023-05-02T09:04:23;112741.81;;;-145.50;96.04
50226;BME280;36113;50.742;6.432;2023-05-02T09:06:48;112741.81;;;-145.50;94.23
50226;BME280;36113;50.742;6.432;2023-05-02T09:09:14;112741.81;;;-145.50;93.77
50226;BME280;36113;50.742;6.432;2023-05-02T09:11:39;112741.81;;;-145.50;92.55
50226;BME280;36113;50.742;6.432;2023-05-02T09:14:15;112741.81;;;-145.50;93.62
50226;BME280;36113;50.742;6.432;2023-05-02T09:16:40;112741.81;;;-145.50;93.89
50226;BME280;36113;50.742;6.432;2023-05-02T09:19:05;112741.81;;;-145.50;94.04
50226;BME280;36113;50.742;6.432;2023-05-02T09:21:36;112741.81;;;-145.50;91.68
50226;BME280;36113;50.742;6.432;2023-05-02T09:24:14;112741.81;;;-145.50;90.58
50226;BME280;36113;50.742;6.432;2023-05-02T09:26:40;112741.81;;;-145.50;90.92
50226;BME280;36113;50.742;6.432;2023-05-02T09:29:05;112741.81;;;-145.50;91.22
50226;BME280;36113;50.742;6.432;2023-05-02T09:31:32;112741.81;;;-145.50;89.32
50226;BME280;36113;50.742;6.432;2023-05-02T09:34:11;112741.81;;;-145.50;87.62
50226;BME280;36113;50.742;6.432;2023-05-02T09:36:49;112741.81;;;-145.50;88.33
50226;BME280;36113;50.742;6.432;2023-05-02T09:39:18;112741.81;;;-145.50;85.46
50226;BME280;36113;50.742;6.432;2023-05-02T09:41:45;112741.81;;;-145.50;84.81
50226;BME280;36113;50.742;6.432;2023-05-02T09:44:12;112741.81;;;-145.50;83.73
50226;BME280;36113;50.742;6.432;2023-05-02T09:46:42;112741.81;;;-145.50;83.06
50226;BME280;36113;50.742;6.432;2023-05-02T09:49:08;112741.81;;;-145.50;82.81
50226;BME280;36113;50.742;6.432;2023-05-02T09:51:34;112741.81;;;-145.50;82.01
50226;BME280;36113;50.742;6.432;2023-05-02T09:53:59;112741.81;;;-145.50;82.09
50226;BME280;36113;50.742;6.432;2023-05-02T09:56:25;112741.81;;;-145.50;82.94
50226;BME280;36113;50.742;6.432;2023-05-02T09:58:50;112741.81;;;-145.50;82.25
50226;BME280;36113;50.742;6.432;2023-05-02T10:01:19;112741.81;;;-145.50;83.47
50226;BME280;36113;50.742;6.432;2023-05-02T10:03:47;112741.81;;;-145.50;83.16
50226;BME280;36113;50.742;6.432;2023-05-02T10:06:14;112741.81;;;-145.50;81.48
50226;BME280;36113;50.742;6.432;2023-05-02T10:08:40;112741.81;;;-145.50;80.90
50226;BME280;36113;50.742;6.432;2023-05-02T10:11:07;112741.81;;;-145.50;79.55
50226;BME280;36113;50.742;6.432;2023-05-02T10:13:33;112741.81;;;-145.50;79.31
50226;BME280;36113;50.742;6.432;2023-05-02T10:16:04;112741.81;;;-145.50;78.75
50226;BME280;36113;50.742;6.432;2023-05-02T10:18:57;112741.81;;;-145.50;79.23
50226;BME280;36113;50.742;6.432;2023-05-02T10:21:31;112741.81;;;-145.50;79.96
50226;BME280;36113;50.742;6.432;2023-05-02T10:23:56;112741.81;;;-145.50;80.41
50226;BME280;36113;50.742;6.432;2023-05-02T10:26:22;112741.81;;;-145.50;80.77
50226;BME280;36113;50.742;6.432;2023-05-02T10:28:50;112741.81;;;-145.50;80.74
50226;BME280;36113;50.742;6.432;2023-05-02T10:31:17;112741.81;;;-145.50;80.61
50226;BME280;36113;50.742;6.432;2023-05-02T10:33:43;112741.81;;;-145.50;79.41
50226;BME280;36113;50.742;6.432;2023-05-02T10:36:10;112741.81;;;-145.50;77.34
50226;BME280;36113;50.742;6.432;2023-05-02T10:38:37;112741.81;;;-145.50;74.11
50226;BME280;36113;50.742;6.432;2023-05-02T10:41:09;112741.81;;;-145.50;74.18
50226;BME280;36113;50.742;6.432;2023-05-02T10:43:37;112741.81;;;-145.50;72.09
50226;BME280;36113;50.742;6.432;2023-05-02T10:46:36;112741.81;;;-145.50;72.50
50226;BME280;36113;50.742;6.432;2023-05-02T10:49:06;112741.81;;;-145.50;74.61
50226;BME280;36113;50.742;6.432;2023-05-02T10:51:32;112741.81;;;-145.50;75.46
50226;BME280;36113;50.742;6.432;2023-05-02T10:54:24;112741.81;;;-145.50;78.71
50226;BME280;36113;50.742;6.432;2023-05-02T10:59:32;112741.81;;;-145.50;81.31
50226;BME280;36113;50.742;6.432;2023-05-02T11:01:58;112741.81;;;-145.50;81.68
50226;BME280;36113;50.742;6.432;2023-05-02T11:04:24;112741.81;;;-145.50;82.45
50226;BME280;36113;50.742;6.432;2023-05-02T11:11:46;112741.81;;;-145.50;84.28
50226;BME280;36113;50.742;6.432;2023-05-02T11:19:26;112741.81;;;-145.50;83.67
50226;BME280;36113;50.742;6.432;2023-05-02T11:21:52;112741.81;;;-145.50;82.66
50226;BME280;36113;50.742;6.432;2023-05-02T11:35:20;112741.81;;;-145.50;87.94
50226;BME280;36113;50.742;6.432;2023-05-02T11:38:02;112741.81;;;-145.50;88.18
50226;BME280;36113;50.742;6.432;2023-05-02T11:40:28;112741.81;;;-145.50;88.84
50226;BME280;36113;50.742;6.432;2023-05-02T11:42:56;112741.81;;;-145.50;89.52
50226;BME280;36113;50.742;6.432;2023-05-02T11:45:32;112741.81;;;-145.50;90.55
50226;BME280;36113;50.742;6.432;2023-05-02T11:47:58;112741.81;;;-145.50;88.86
50226;BME280;36113;50.742;6.432;2023-05-02T11:50:24;112741.81;;;-145.50;90.25
50226;BME280;36113;50.742;6.432;2023-05-02T11:52:50;112741.81;;;-145.50;87.77
50226;BME280;36113;50.742;6.432;2023-05-02T11:55:15;112741.81;;;-145.50;86.90
50226;BME280;36113;50.742;6.432;2023-05-02T11:57:41;112741.81;;;-145.50;84.21
50226;BME280;36113;50.742;6.432;2023-05-02T12:00:07;112741.81;;;-145.50;84.68
50226;BME280;36113;50.742;6.432;2023-05-02T12:02:40;112741.81;;;-145.50;84.68
50226;BME280;36113;50.742;6.432;2023-05-02T12:05:07;112741.81;;;-145.50;83.52
50226;BME280;36113;50.742;6.432;2023-05-02T12:07:39;112741.81;;;-145.50;83.61
50226;BME280;36113;50.742;6.432;2023-05-02T12:10:07;112741.81;;;-145.50;82.04
50226;BME280;36113;50.742;6.432;2023-05-02T12:12:33;112741.81;;;-145.50;83.09
50226;BME280;36113;50.742;6.432;2023-05-02T12:15:05;112741.81;;;-145.50;81.52
50226;BME280;36113;50.742;6.432;2023-05-02T12:17:32;112741.81;;;-145.50;81.31
50226;BME280;36113;50.742;6.432;2023-05-02T12:19:58;112741.81;;;-145.50;80.11
50226;BME280;36113;50.742;6.432;2023-05-02T12:22:24;112741.81;;;-145.50;81.22
50226;BME280;36113;50.742;6.432;2023-05-02T12:24:50;112741.81;;;-145.50;80.38
50226;BME280;36113;50.742;6.432;2023-05-02T12:27:20;112741.81;;;-145.50;82.16
50226;BME280;36113;50.742;6.432;2023-05-02T12:29:46;112741.81;;;-145.50;81.96
50226;BME280;36113;50.742;6.432;2023-05-02T12:32:14;112741.81;;;-145.50;76.87
50226;BME280;36113;50.742;6.432;2023-05-02T12:34:45;112741.81;;;-145.50;78.93
50226;BME280;36113;50.742;6.432;2023-05-02T12:37:10;112741.81;;;-145.50;79.31
50226;BME280;36113;50.742;6.432;2023-05-02T12:39:38;112741.81;;;-145.50;80.64
50226;BME280;36113;50.742;6.432;2023-05-02T12:42:11;112741.81;;;-145.50;83.16
50226;BME280;36113;50.742;6.432;2023-05-02T12:44:41;112741.81;;;-145.50;81.96
50226;BME280;36113;50.742;6.432;2023-05-02T12:47:09;112741.81;;;-145.50;79.49
50226;BME280;36113;50.742;6.432;2023-05-02T12:52:14;112741.81;;;-145.50;78.17
50226;BME280;36113;50.742;6.432;2023-05-02T12:54:40;112741.81;;;-145.50;78.66
50226;BME280;36113;50.742;6.432;2023-05-02T12:57:05;112741.81;;;-145.50;78.81
50226;BME280;36113;50.742;6.432;2023-05-02T12:59:32;112741.81;;;-145.50;78.74
50226;BME280;36113;50.742;6.432;2023-05-02T13:01:58;112741.81;;;-145.50;76.38
50226;BME280;36113;50.742;6.432;2023-05-02T13:04:36;112741.81;;;-145.50;78.10
50226;BME280;36113;50.742;6.432;2023-05-02T13:07:03;112741.81;;;-145.50;76.44
50226;BME280;36113;50.742;6.432;2023-05-02T13:09:28;112741.81;;;-145.50;75.29